FIN132 WSSS-EFHK
Flight info
| Callsign | FIN132 |
|---|---|
| Flight time | N/A |
| Altitude | 30000 |
| Route | AROSO5B AROSO Y513 KALIL Y501 RINBA Y502 DUBAX R325 IKULA L515 OBMOG M770 KAKID M875 AGROM/N0500F320 M875 DI N644 LEMOD/N0486F340 A909 RODAR N644 NIJAT/N0475F360 N644 ROLIN DCT OLDUD/N0473F380 DCT ODERO DCT LUGEB DCT LAPKA DCT KENIN DCT TOXAR/N0463F390 DCT BOKSU DCT INBOV DCT GUNTA DCT SOKVA DCT ANAMA DCT KEMET Q11 INTOR |
| Aircraft | A343/H-SDE2E3FGHIJ4J5M1RWXY/LB1D1 |
Departure
| Time | 2026-05-04 06:28 |
|---|---|
| Airport | Singapore Changi Airport (WSSS) |
Arrival
| Time | N/A |
|---|---|
| Airport | Helsinki Vantaa Airport (EFHK) |
| Time | Latitude | Longitude | Altitude | Speed | Heading |
|---|---|---|---|---|---|
| 2026-05-04 05:49 | 1.36453 | 103.99284 | 34 ft | 0 kts | 143° |
| 2026-05-04 06:16 | 1.36461 | 103.99278 | 34 ft | 4 kts | 143° |
| 2026-05-04 06:17 | 1.36482 | 103.99263 | 33 ft | 2 kts | 143° |
| 2026-05-04 06:17 | 1.36498 | 103.99249 | 32 ft | 4 kts | 113° |
| 2026-05-04 06:17 | 1.36498 | 103.99228 | 31 ft | 3 kts | 54° |
| 2026-05-04 06:17 | 1.36500 | 103.99231 | 31 ft | 4 kts | 56° |
| 2026-05-04 06:18 | 1.36501 | 103.99249 | 31 ft | 4 kts | 124° |
| 2026-05-04 06:18 | 1.36493 | 103.99255 | 33 ft | 0 kts | 143° |
| 2026-05-04 06:18 | 1.36505 | 103.99244 | 30 ft | 4 kts | 82° |
| 2026-05-04 06:20 | 1.36475 | 103.99196 | 31 ft | 0 kts | 53° |
| 2026-05-04 06:25 | 1.36305 | 103.99880 | 34 ft | 8 kts | 173° |
| 2026-05-04 06:25 | 1.36250 | 103.99887 | 34 ft | 9 kts | 173° |
| 2026-05-04 06:26 | 1.36193 | 103.99893 | 34 ft | 8 kts | 178° |
| 2026-05-04 06:26 | 1.36167 | 103.99886 | 34 ft | 0 kts | 202° |
| 2026-05-04 06:26 | 1.36156 | 103.99882 | 34 ft | 11 kts | 202° |
| 2026-05-04 06:27 | 1.33432 | 103.98733 | 98 ft | 177 kts | 202° |
| 2026-05-04 06:28 | 1.32292 | 103.98267 | 492 ft | 180 kts | 201° |
| 2026-05-04 06:28 | 1.31098 | 103.97804 | 851 ft | 189 kts | 201° |
| 2026-05-04 06:28 | 1.29872 | 103.97305 | 1272 ft | 194 kts | 204° |
| 2026-05-04 06:28 | 1.28612 | 103.96750 | 1720 ft | 202 kts | 204° |
| 2026-05-04 06:29 | 1.27253 | 103.96172 | 1855 ft | 219 kts | 203° |
| 2026-05-04 06:29 | 1.25786 | 103.95574 | 1939 ft | 237 kts | 203° |
| 2026-05-04 06:29 | 1.24214 | 103.94917 | 2277 ft | 247 kts | 203° |
| 2026-05-04 06:29 | 1.22506 | 103.94638 | 2492 ft | 260 kts | 171° |
| 2026-05-04 06:30 | 1.20845 | 103.95370 | 2683 ft | 273 kts | 139° |
| 2026-05-04 06:30 | 1.19523 | 103.96813 | 2827 ft | 290 kts | 131° |
| 2026-05-04 06:30 | 1.18146 | 103.98336 | 3155 ft | 299 kts | 134° |
| 2026-05-04 06:30 | 1.16758 | 103.99899 | 3544 ft | 305 kts | 122° |
| 2026-05-04 06:31 | 1.16062 | 104.01900 | 4033 ft | 307 kts | 92° |
| 2026-05-04 06:31 | 1.16426 | 104.03955 | 4507 ft | 307 kts | 63° |
| 2026-05-04 06:31 | 1.17621 | 104.05749 | 5020 ft | 308 kts | 51° |
| 2026-05-04 06:31 | 1.18964 | 104.07411 | 5499 ft | 310 kts | 50° |
| 2026-05-04 06:32 | 1.20474 | 104.08930 | 5966 ft | 312 kts | 34° |
| 2026-05-04 06:33 | 1.33277 | 104.09364 | 8898 ft | 321 kts | 318° |
| 2026-05-04 06:34 | 1.34946 | 104.07894 | 9318 ft | 324 kts | 319° |
| 2026-05-04 06:34 | 1.36661 | 104.06407 | 9771 ft | 325 kts | 319° |
| 2026-05-04 06:34 | 1.38376 | 104.04935 | 10090 ft | 331 kts | 319° |
| 2026-05-04 06:34 | 1.40164 | 104.03413 | 10290 ft | 342 kts | 320° |
| 2026-05-04 06:35 | 1.42157 | 104.02086 | 10440 ft | 352 kts | 336° |